Poland, Ohio
Current Conditions -  °F | °C
As of 3:51 PM on Friday 31 Oct 2014 (Local Time) from KYNG Reporting Station
Overcast Overcast  
Wind Chill: 46°   Ceiling: 4000
Heat Index: 46°   Visibility: 10mi
Dew Point: 36°   Wind: 3mph
Humidity: 68%   Direction: 220°SW
Pressure: 29.85"   Gusts: NA
Location:  41.0005°N, 80.596°W
Report Text: KYNG 311951Z 22003KT 10SM FEW023 OVC040 08/02 A2985 RMK AO2 SLP113 T00780022 $
Loading
Personal Weather Stations






























Interactive Weather Map
Tropical Storm Tracking
New forecast layout! Learn more

10-Day Weather Forecast

Advertisements
Track Severe Weather on mobile